Amana, Iowa
Current Conditions -  °F | °C
As of 12:52 AM on Wednesday 22 Oct 2014 (Local Time) from KCID Reporting Station
Clear Clear  
Wind Chill: 35°   Ceiling: Unl
Heat Index: 39°   Visibility: 10mi
Dew Point: 37°   Wind: 6mph
Humidity: 93%   Direction: 110°ESE
Pressure: 30.23"   Gusts: NA
Location:  41.8°N, 91.87°W
Report Text: KCID 220552Z AUTO 11005KT 10SM CLR 04/03 A3023 RMK AO2 SLP241 T00390028 10094 20039 401560022 51006
Loading
Personal Weather Stations






























Interactive Weather Map
Tropical Storm Tracking
New forecast layout! Learn more

10-Day Weather Forecast

Advertisements
Track Severe Weather on mobile